createdAt,value
2016-10-23T00:00:16.731Z,999.94
2016-10-23T00:00:57.415Z,999.95
2016-10-23T00:01:38.108Z,999.94
2016-10-23T00:02:18.769Z,999.91
2016-10-23T00:02:59.443Z,999.92
2016-10-23T00:03:40.154Z,999.92
2016-10-23T00:04:20.788Z,999.93
2016-10-23T00:05:01.417Z,999.96
2016-10-23T00:05:42.102Z,999.97
2016-10-23T00:06:22.775Z,999.98
2016-10-23T00:07:03.432Z,999.94
2016-10-23T00:07:44.091Z,999.96
2016-10-23T00:08:24.796Z,999.96
2016-10-23T00:09:05.506Z,999.95
2016-10-23T00:09:46.186Z,999.94
2016-10-23T00:10:26.918Z,999.95
2016-10-23T00:11:07.532Z,999.95
2016-10-23T00:11:48.268Z,999.95
2016-10-23T00:12:28.962Z,999.9
2016-10-23T00:13:09.627Z,999.92
2016-10-23T00:13:50.303Z,999.96
2016-10-23T00:14:30.980Z,999.92
2016-10-23T00:15:11.674Z,999.93
2016-10-23T00:15:52.359Z,999.9
2016-10-23T00:16:33.022Z,999.91
2016-10-23T00:17:13.689Z,999.88
2016-10-23T00:17:54.381Z,999.86
2016-10-23T00:18:35.071Z,999.88
2016-10-23T00:19:15.744Z,999.89
2016-10-23T00:19:56.454Z,999.86
2016-10-23T00:20:37.101Z,999.89
2016-10-23T00:21:17.781Z,999.88
2016-10-23T00:21:58.501Z,999.91
2016-10-23T00:22:39.217Z,999.91
2016-10-23T00:23:19.877Z,999.96
2016-10-23T00:24:00.602Z,999.93
2016-10-23T00:24:41.276Z,999.93
2016-10-23T00:25:21.936Z,999.93
2016-10-23T00:26:02.636Z,999.93
2016-10-23T00:26:43.328Z,999.9
2016-10-23T00:27:24.038Z,999.93
2016-10-23T00:28:04.712Z,999.93
2016-10-23T00:28:45.384Z,999.9
2016-10-23T00:29:26.059Z,999.87
2016-10-23T00:30:06.712Z,999.85
2016-10-23T00:30:47.409Z,999.83
2016-10-23T00:31:28.095Z,999.78
2016-10-23T00:32:08.804Z,999.73
2016-10-23T00:32:49.469Z,999.7
2016-10-23T00:33:30.170Z,999.69
2016-10-23T00:34:10.862Z,999.64
2016-10-23T00:34:52.096Z,999.67
2016-10-23T00:35:32.757Z,999.6
2016-10-23T00:36:13.464Z,999.6
2016-10-23T00:36:54.147Z,999.62
2016-10-23T00:37:34.807Z,999.63
2016-10-23T00:38:15.476Z,999.66
2016-10-23T00:38:56.141Z,999.67
2016-10-23T00:39:36.823Z,999.66
2016-10-23T00:40:17.511Z,999.66
2016-10-23T00:40:58.180Z,999.69
2016-10-23T00:41:38.882Z,999.64
2016-10-23T00:42:19.552Z,999.69
2016-10-23T00:43:00.252Z,999.69
2016-10-23T00:43:40.927Z,999.7
2016-10-23T00:44:21.613Z,999.71
2016-10-23T00:45:02.327Z,999.71
2016-10-23T00:45:43.036Z,999.75
2016-10-23T00:46:23.715Z,999.72
2016-10-23T00:47:04.409Z,999.72
2016-10-23T00:47:45.074Z,999.64
2016-10-23T00:48:25.782Z,999.69
2016-10-23T00:49:06.479Z,999.65
2016-10-23T00:49:47.109Z,999.67
2016-10-23T00:50:27.790Z,999.66
2016-10-23T00:51:08.515Z,999.67
2016-10-23T00:51:49.200Z,999.64
2016-10-23T00:52:29.896Z,999.67
2016-10-23T00:53:10.619Z,999.65
2016-10-23T00:53:51.323Z,999.68
2016-10-23T00:54:31.998Z,999.69
2016-10-23T00:55:12.724Z,999.7
2016-10-23T00:55:53.375Z,999.7
2016-10-23T00:56:34.067Z,999.71
2016-10-23T00:57:14.775Z,999.7
2016-10-23T00:57:55.437Z,999.74
2016-10-23T00:58:36.131Z,999.71
2016-10-23T00:59:16.781Z,999.74
2016-10-23T00:59:57.473Z,999.76
2016-10-23T01:00:38.159Z,999.79
2016-10-23T01:01:18.854Z,999.81
2016-10-23T01:01:59.519Z,999.76
2016-10-23T01:02:40.214Z,999.76
2016-10-23T01:03:20.889Z,999.75
2016-10-23T01:04:01.577Z,999.74
2016-10-23T01:04:42.241Z,999.71
2016-10-23T01:05:22.917Z,999.7
2016-10-23T01:06:03.640Z,999.72
2016-10-23T01:06:44.317Z,999.71
2016-10-23T01:07:24.971Z,999.71
2016-10-23T01:08:05.643Z,999.74
2016-10-23T01:08:46.328Z,999.73
2016-10-23T01:09:27.020Z,999.74
2016-10-23T01:10:07.665Z,999.75
2016-10-23T01:10:48.392Z,999.73
2016-10-23T01:11:29.026Z,999.73
2016-10-23T01:12:09.749Z,999.77
2016-10-23T01:12:50.436Z,999.75
2016-10-23T01:13:31.059Z,999.74
2016-10-23T01:14:11.759Z,999.71
2016-10-23T01:14:52.419Z,999.7
2016-10-23T01:15:33.065Z,999.69
2016-10-23T01:16:13.688Z,999.69
2016-10-23T01:16:54.407Z,999.68
2016-10-23T01:17:35.103Z,999.69
2016-10-23T01:18:15.804Z,999.68
2016-10-23T01:18:56.477Z,999.67
2016-10-23T01:19:37.196Z,999.66
2016-10-23T01:20:17.901Z,999.62
2016-10-23T01:20:58.520Z,999.62
2016-10-23T01:21:39.259Z,999.58
2016-10-23T01:22:19.934Z,999.63
2016-10-23T01:23:00.613Z,999.59
2016-10-23T01:23:41.308Z,999.59
2016-10-23T01:24:21.943Z,999.57
2016-10-23T01:25:02.611Z,999.53
2016-10-23T01:25:43.974Z,999.55
2016-10-23T01:26:23.965Z,999.52
2016-10-23T01:27:04.689Z,999.49
2016-10-23T01:27:45.388Z,999.53
2016-10-23T01:28:26.038Z,999.53
2016-10-23T01:29:06.737Z,999.52
2016-10-23T01:29:47.418Z,999.52
2016-10-23T01:30:28.091Z,999.54
2016-10-23T01:31:08.777Z,999.57
2016-10-23T01:31:49.469Z,999.55
2016-10-23T01:32:30.134Z,999.55
2016-10-23T01:33:10.789Z,999.53
2016-10-23T01:33:51.457Z,999.49
2016-10-23T01:34:32.191Z,999.45
2016-10-23T01:35:12.873Z,999.44
2016-10-23T01:35:53.581Z,999.44
2016-10-23T01:36:34.262Z,999.42
2016-10-23T01:37:14.953Z,999.44
2016-10-23T01:37:55.668Z,999.46
2016-10-23T01:38:36.352Z,999.45
2016-10-23T01:39:17.030Z,999.48
2016-10-23T01:39:57.726Z,999.48
2016-10-23T01:40:38.484Z,999.49
2016-10-23T01:41:19.169Z,999.45
2016-10-23T01:41:59.890Z,999.43
2016-10-23T01:42:40.563Z,999.4
2016-10-23T01:43:21.274Z,999.4
2016-10-23T01:44:01.965Z,999.37
2016-10-23T01:44:42.647Z,999.34
2016-10-23T01:45:23.344Z,999.33
2016-10-23T01:46:04.031Z,999.38
2016-10-23T01:46:44.696Z,999.39
2016-10-23T01:47:25.387Z,999.41
2016-10-23T01:48:06.099Z,999.43
2016-10-23T01:48:46.722Z,999.45
2016-10-23T01:49:27.391Z,999.49
2016-10-23T01:50:08.059Z,999.47
2016-10-23T01:50:48.730Z,999.45
2016-10-23T01:51:29.430Z,999.48
2016-10-23T01:52:10.113Z,999.47
2016-10-23T01:52:50.800Z,999.5
2016-10-23T01:53:31.476Z,999.47
2016-10-23T01:54:12.149Z,999.5
2016-10-23T01:54:52.895Z,999.5
2016-10-23T01:55:33.545Z,999.5
2016-10-23T01:56:14.273Z,999.5
2016-10-23T01:56:54.989Z,999.49
2016-10-23T01:57:35.691Z,999.53
2016-10-23T01:58:16.409Z,999.53
2016-10-23T01:58:57.086Z,999.54
2016-10-23T01:59:37.790Z,999.5
2016-10-23T02:00:18.475Z,999.51
2016-10-23T02:00:59.199Z,999.5
2016-10-23T02:01:39.882Z,999.46
2016-10-23T02:02:20.621Z,999.47
2016-10-23T02:03:01.286Z,999.46
2016-10-23T02:03:41.966Z,999.44
2016-10-23T02:04:22.647Z,999.44
2016-10-23T02:05:03.311Z,999.46
2016-10-23T02:05:44.026Z,999.46
2016-10-23T02:06:25.503Z,999.48
2016-10-23T02:07:05.414Z,999.49
2016-10-23T02:07:46.100Z,999.44
2016-10-23T02:08:26.809Z,999.46
2016-10-23T02:09:07.478Z,999.48
2016-10-23T02:09:48.175Z,999.44
2016-10-23T02:10:28.840Z,999.44
2016-10-23T02:11:09.518Z,999.4
2016-10-23T02:11:50.203Z,999.42
2016-10-23T02:12:30.900Z,999.44
2016-10-23T02:13:11.592Z,999.44
2016-10-23T02:13:52.328Z,999.4
2016-10-23T02:14:32.981Z,999.42
2016-10-23T02:15:13.696Z,999.36
2016-10-23T02:15:54.387Z,999.38
2016-10-23T02:16:35.028Z,999.35
2016-10-23T02:17:15.698Z,999.37
2016-10-23T02:17:56.400Z,999.37
2016-10-23T02:18:37.069Z,999.34
2016-10-23T02:19:17.728Z,999.35
2016-10-23T02:19:58.447Z,999.31
2016-10-23T02:20:39.130Z,999.33
2016-10-23T02:21:19.795Z,999.27
2016-10-23T02:22:00.480Z,999.32
2016-10-23T02:22:41.187Z,999.31
2016-10-23T02:23:21.855Z,999.26
2016-10-23T02:24:02.554Z,999.25
2016-10-23T02:24:43.222Z,999.24
2016-10-23T02:25:23.895Z,999.2
2016-10-23T02:26:04.597Z,999.19
2016-10-23T02:26:45.269Z,999.13
2016-10-23T02:27:25.957Z,999.12
2016-10-23T02:28:06.667Z,999.1
2016-10-23T02:28:47.320Z,999.08
2016-10-23T02:29:28.012Z,999.08
2016-10-23T02:30:08.699Z,999.04
2016-10-23T02:30:49.368Z,999.05
2016-10-23T02:31:30.023Z,999.06
2016-10-23T02:32:10.737Z,999.03
2016-10-23T02:32:51.428Z,999
2016-10-23T02:33:32.066Z,999
2016-10-23T02:34:12.695Z,998.97
2016-10-23T02:34:53.375Z,999
2016-10-23T02:35:34.060Z,998.95
2016-10-23T02:36:14.774Z,998.97
2016-10-23T02:36:55.426Z,998.92
2016-10-23T02:37:36.146Z,998.92
2016-10-23T02:38:16.815Z,998.92
2016-10-23T02:38:57.523Z,998.91
2016-10-23T02:39:38.186Z,998.88
2016-10-23T02:40:18.902Z,998.93
2016-10-23T02:40:59.579Z,998.89
2016-10-23T02:41:40.278Z,998.88
2016-10-23T02:42:20.983Z,998.89
2016-10-23T02:43:01.664Z,998.9
2016-10-23T02:43:42.364Z,998.86
2016-10-23T02:44:23.057Z,998.91
2016-10-23T02:45:03.761Z,998.88
2016-10-23T02:45:44.437Z,998.86
2016-10-23T02:46:25.128Z,998.88
2016-10-23T02:47:05.786Z,998.89
2016-10-23T02:47:46.482Z,998.85
2016-10-23T02:48:27.123Z,998.82
2016-10-23T02:49:07.796Z,998.83
2016-10-23T02:49:48.435Z,998.8
2016-10-23T02:50:29.149Z,998.8
2016-10-23T02:51:09.836Z,998.83
2016-10-23T02:51:50.528Z,998.82
2016-10-23T02:52:31.224Z,998.8
2016-10-23T02:53:11.901Z,998.83
2016-10-23T02:53:52.589Z,998.76
2016-10-23T02:54:33.298Z,998.71
2016-10-23T02:55:13.978Z,998.7
2016-10-23T02:55:54.690Z,998.65
2016-10-23T02:56:35.343Z,998.65
2016-10-23T02:57:16.039Z,998.6
2016-10-23T02:57:56.740Z,998.61
2016-10-23T02:58:37.425Z,998.62
2016-10-23T02:59:18.144Z,998.6
2016-10-23T02:59:58.852Z,998.63
2016-10-23T03:00:39.502Z,998.64
2016-10-23T03:01:20.224Z,998.61
2016-10-23T03:02:00.896Z,998.61
2016-10-23T03:02:41.562Z,998.61
2016-10-23T03:03:22.213Z,998.56
2016-10-23T03:04:02.931Z,998.57
2016-10-23T03:04:43.633Z,998.56
2016-10-23T03:05:24.358Z,998.52
2016-10-23T03:06:05.013Z,998.53
2016-10-23T03:06:45.711Z,998.52
2016-10-23T03:07:26.398Z,998.51
2016-10-23T03:08:07.060Z,998.49
2016-10-23T03:08:47.705Z,998.48
2016-10-23T03:09:28.401Z,998.5
2016-10-23T03:10:09.068Z,998.55
2016-10-23T03:10:49.729Z,998.55
2016-10-23T03:11:30.432Z,998.59
2016-10-23T03:12:11.096Z,998.62
2016-10-23T03:12:51.792Z,998.63
2016-10-23T03:13:32.482Z,998.67
2016-10-23T03:14:13.210Z,998.58
2016-10-23T03:14:53.921Z,998.6
2016-10-23T03:15:34.603Z,998.55
2016-10-23T03:16:15.293Z,998.54
2016-10-23T03:16:55.987Z,998.56
2016-10-23T03:17:36.721Z,998.52
2016-10-23T03:18:17.390Z,998.49
2016-10-23T03:18:58.129Z,998.52
2016-10-23T03:19:38.831Z,998.55
2016-10-23T03:20:19.498Z,998.56
2016-10-23T03:21:00.157Z,998.55
2016-10-23T03:21:40.817Z,998.54
2016-10-23T03:22:21.498Z,998.51
2016-10-23T03:23:02.217Z,998.47
2016-10-23T03:23:42.886Z,998.45
2016-10-23T03:24:23.588Z,998.43
2016-10-23T03:25:04.280Z,998.43
2016-10-23T03:25:45.004Z,998.35
2016-10-23T03:26:25.656Z,998.39
2016-10-23T03:27:06.325Z,998.34
2016-10-23T03:27:46.994Z,998.31
2016-10-23T03:28:27.736Z,998.33
2016-10-23T03:29:08.440Z,998.32
2016-10-23T03:29:49.114Z,998.36
2016-10-23T03:30:29.771Z,998.31
2016-10-23T03:31:10.509Z,998.3
2016-10-23T03:31:51.172Z,998.3
2016-10-23T03:32:31.854Z,998.28
2016-10-23T03:33:12.599Z,998.33
2016-10-23T03:33:53.250Z,998.29
2016-10-23T03:34:33.938Z,998.29
2016-10-23T03:35:14.634Z,998.31
2016-10-23T03:35:55.345Z,998.26
2016-10-23T03:36:36.067Z,998.27
2016-10-23T03:37:16.752Z,998.27
2016-10-23T03:37:57.415Z,998.25
2016-10-23T03:38:38.109Z,998.2
2016-10-23T03:39:18.757Z,998.18
2016-10-23T03:39:59.465Z,998.12
2016-10-23T03:40:40.164Z,998.15
2016-10-23T03:41:20.830Z,998.11
2016-10-23T03:42:01.473Z,998.09
2016-10-23T03:42:42.120Z,998.06
2016-10-23T03:43:22.809Z,998.05
2016-10-23T03:44:03.511Z,998.09
2016-10-23T03:44:44.213Z,998.11
2016-10-23T03:45:24.877Z,998.11
2016-10-23T03:46:05.554Z,998.11
2016-10-23T03:46:46.223Z,998.15
2016-10-23T03:47:26.924Z,998.23
2016-10-23T03:48:07.605Z,998.21
2016-10-23T03:48:48.278Z,998.23
2016-10-23T03:49:28.937Z,998.26
2016-10-23T03:50:09.611Z,998.23
2016-10-23T03:50:50.295Z,998.22
2016-10-23T03:51:31.003Z,998.26
2016-10-23T03:52:11.632Z,998.24
2016-10-23T03:52:52.312Z,998.28
2016-10-23T03:53:32.995Z,998.3
2016-10-23T03:54:13.693Z,998.28
2016-10-23T03:54:54.345Z,998.28
2016-10-23T03:55:35.002Z,998.24
2016-10-23T03:56:15.696Z,998.28
2016-10-23T03:56:56.344Z,998.26
2016-10-23T03:57:37.023Z,998.23
2016-10-23T03:58:17.724Z,998.23
2016-10-23T03:58:58.411Z,998.23
2016-10-23T03:59:39.093Z,998.24
2016-10-23T04:00:19.797Z,998.21
2016-10-23T04:01:00.515Z,998.21
2016-10-23T04:01:41.224Z,998.21
2016-10-23T04:02:21.921Z,998.2
2016-10-23T04:03:02.593Z,998.16
2016-10-23T04:03:43.258Z,998.19
2016-10-23T04:04:23.923Z,998.2
2016-10-23T04:05:04.553Z,998.24
2016-10-23T04:05:45.232Z,998.3
2016-10-23T04:06:25.900Z,998.3
2016-10-23T04:07:06.566Z,998.32
2016-10-23T04:07:47.273Z,998.3
2016-10-23T04:08:27.939Z,998.31
2016-10-23T04:09:08.619Z,998.28
2016-10-23T04:09:49.330Z,998.26
2016-10-23T04:10:30.020Z,998.23
2016-10-23T04:11:10.715Z,998.24
2016-10-23T04:11:51.405Z,998.24
2016-10-23T04:12:32.098Z,998.24
2016-10-23T04:13:12.797Z,998.28
2016-10-23T04:13:53.470Z,998.31
2016-10-23T04:14:34.166Z,998.3
2016-10-23T04:15:14.875Z,998.3
2016-10-23T04:15:55.541Z,998.28
2016-10-23T04:16:36.216Z,998.31
2016-10-23T04:17:16.846Z,998.32
2016-10-23T04:17:57.537Z,998.35
2016-10-23T04:18:38.211Z,998.34
2016-10-23T04:19:18.912Z,998.32
2016-10-23T04:19:59.591Z,998.33
2016-10-23T04:20:40.304Z,998.34
2016-10-23T04:21:20.978Z,998.33
2016-10-23T04:22:01.691Z,998.32
2016-10-23T04:22:42.378Z,998.35
2016-10-23T04:23:23.054Z,998.33
2016-10-23T04:24:03.776Z,998.33
2016-10-23T04:24:44.446Z,998.33
2016-10-23T04:25:25.084Z,998.31
2016-10-23T04:26:05.773Z,998.31
2016-10-23T04:26:46.484Z,998.33
2016-10-23T04:27:27.149Z,998.3
2016-10-23T04:28:07.826Z,998.33
2016-10-23T04:28:48.533Z,998.36
2016-10-23T04:29:29.240Z,998.37
2016-10-23T04:30:09.968Z,998.4
2016-10-23T04:30:50.669Z,998.42
2016-10-23T04:31:31.368Z,998.43
2016-10-23T04:32:12.023Z,998.47
2016-10-23T04:32:52.715Z,998.48
2016-10-23T04:33:33.422Z,998.46
2016-10-23T04:34:14.118Z,998.48
2016-10-23T04:34:54.833Z,998.5
2016-10-23T04:35:35.529Z,998.51
2016-10-23T04:36:16.237Z,998.5
2016-10-23T04:36:56.937Z,998.49
2016-10-23T04:37:37.603Z,998.51
2016-10-23T04:38:18.306Z,998.5
2016-10-23T04:38:58.968Z,998.51
2016-10-23T04:39:39.648Z,998.53
2016-10-23T04:40:20.371Z,998.5
2016-10-23T04:41:01.027Z,998.52
2016-10-23T04:41:41.726Z,998.53
2016-10-23T04:42:22.411Z,998.52
2016-10-23T04:43:03.059Z,998.55
2016-10-23T04:43:43.733Z,998.54
2016-10-23T04:44:24.390Z,998.52
2016-10-23T04:45:05.077Z,998.55
2016-10-23T04:45:45.732Z,998.5
2016-10-23T04:46:26.373Z,998.52
2016-10-23T04:47:07.039Z,998.53
2016-10-23T04:47:47.755Z,998.51
2016-10-23T04:48:28.434Z,998.54
2016-10-23T04:49:09.146Z,998.52
2016-10-23T04:49:49.832Z,998.52
2016-10-23T04:50:30.487Z,998.52
2016-10-23T04:51:11.196Z,998.54
2016-10-23T04:51:51.886Z,998.62
2016-10-23T04:52:32.569Z,998.61
2016-10-23T04:53:13.279Z,998.65
2016-10-23T04:53:53.953Z,998.71
2016-10-23T04:54:34.596Z,998.68
2016-10-23T04:55:15.280Z,998.7
2016-10-23T04:55:55.970Z,998.72
2016-10-23T04:56:36.691Z,998.7
2016-10-23T04:57:17.357Z,998.71
2016-10-23T04:57:58.046Z,998.69
2016-10-23T04:58:38.723Z,998.67
2016-10-23T04:59:19.395Z,998.7
2016-10-23T05:00:00.111Z,998.7
2016-10-23T05:00:40.767Z,998.74
2016-10-23T05:01:21.482Z,998.78
2016-10-23T05:02:02.124Z,998.78
2016-10-23T05:02:42.807Z,998.82
2016-10-23T05:03:23.470Z,998.85
2016-10-23T05:04:04.161Z,998.81
2016-10-23T05:04:44.845Z,998.86
2016-10-23T05:05:25.552Z,998.82
2016-10-23T05:06:06.245Z,998.8
2016-10-23T05:06:46.937Z,998.81
2016-10-23T05:07:27.608Z,998.8
2016-10-23T05:08:08.296Z,998.83
2016-10-23T05:08:48.976Z,998.84
2016-10-23T05:09:29.653Z,998.88
2016-10-23T05:10:10.337Z,998.88
2016-10-23T05:10:51.004Z,998.95
2016-10-23T05:11:31.714Z,998.92
2016-10-23T05:12:12.375Z,998.95
2016-10-23T05:12:53.027Z,998.96
2016-10-23T05:13:33.751Z,998.96
2016-10-23T05:14:14.407Z,998.97
2016-10-23T05:14:55.148Z,998.96
2016-10-23T05:15:35.827Z,998.97
2016-10-23T05:16:16.496Z,999.02
2016-10-23T05:16:57.164Z,999.03
2016-10-23T05:17:37.905Z,999.01
2016-10-23T05:18:19.104Z,999.02
2016-10-23T05:18:59.280Z,999.02
2016-10-23T05:19:39.944Z,998.96
2016-10-23T05:20:20.685Z,998.94
2016-10-23T05:21:01.383Z,998.92
2016-10-23T05:21:42.065Z,998.88
2016-10-23T05:22:22.728Z,998.92
2016-10-23T05:23:03.450Z,998.91
2016-10-23T05:23:44.122Z,998.89
2016-10-23T05:24:24.831Z,998.9
2016-10-23T05:25:05.500Z,998.91
2016-10-23T05:25:46.167Z,998.91
2016-10-23T05:26:26.857Z,998.94
2016-10-23T05:27:07.510Z,998.92
2016-10-23T05:27:48.173Z,998.95
2016-10-23T05:28:28.884Z,998.92
2016-10-23T05:29:09.540Z,998.91
2016-10-23T05:29:50.262Z,998.95
2016-10-23T05:30:30.969Z,998.94
2016-10-23T05:31:11.621Z,998.98
2016-10-23T05:31:52.302Z,998.95
2016-10-23T05:32:32.961Z,998.93
2016-10-23T05:33:13.627Z,998.95
2016-10-23T05:33:54.305Z,998.93
2016-10-23T05:34:34.955Z,998.96
2016-10-23T05:35:15.649Z,998.92
2016-10-23T05:35:56.348Z,998.91
2016-10-23T05:36:37.018Z,998.91
2016-10-23T05:37:17.676Z,998.88
2016-10-23T05:37:58.923Z,998.89
2016-10-23T05:38:39.587Z,998.91
2016-10-23T05:39:20.268Z,998.89
2016-10-23T05:40:00.972Z,998.91
2016-10-23T05:40:41.660Z,998.83
2016-10-23T05:41:22.339Z,998.86
2016-10-23T05:42:03.002Z,998.84
2016-10-23T05:42:43.655Z,998.83
2016-10-23T05:43:24.340Z,998.85
2016-10-23T05:44:04.993Z,998.85
2016-10-23T05:44:45.700Z,998.89
2016-10-23T05:45:26.349Z,998.9
2016-10-23T05:46:07.013Z,998.86
2016-10-23T05:46:47.689Z,998.89
2016-10-23T05:47:28.398Z,998.87
2016-10-23T05:48:09.079Z,998.87
2016-10-23T05:48:49.762Z,998.93
2016-10-23T05:49:30.429Z,998.91
2016-10-23T05:50:11.099Z,998.91
2016-10-23T05:50:51.788Z,998.94
2016-10-23T05:51:32.521Z,998.9
2016-10-23T05:52:13.204Z,998.92
2016-10-23T05:52:53.883Z,998.9
2016-10-23T05:53:34.525Z,998.91
2016-10-23T05:54:15.171Z,998.91
2016-10-23T05:54:55.845Z,998.91
2016-10-23T05:55:36.521Z,998.93
2016-10-23T05:56:17.218Z,998.88
2016-10-23T05:56:57.885Z,998.88
2016-10-23T05:57:38.549Z,998.88
2016-10-23T05:58:19.241Z,998.89
2016-10-23T05:58:59.903Z,998.9
2016-10-23T05:59:40.615Z,998.9
2016-10-23T06:00:21.317Z,998.92
2016-10-23T06:01:01.956Z,998.91
2016-10-23T06:01:42.663Z,998.91
2016-10-23T06:02:23.358Z,998.9
2016-10-23T06:03:03.997Z,998.93
2016-10-23T06:03:44.685Z,998.92
2016-10-23T06:04:25.362Z,998.94
2016-10-23T06:05:06.055Z,998.95
2016-10-23T06:05:46.752Z,998.97
2016-10-23T06:06:27.431Z,998.98
2016-10-23T06:07:08.103Z,998.97
2016-10-23T06:07:48.788Z,998.96
2016-10-23T06:08:29.528Z,998.93
2016-10-23T06:09:10.265Z,998.95
2016-10-23T06:09:50.942Z,998.9
2016-10-23T06:10:31.656Z,998.88
2016-10-23T06:11:12.312Z,998.84
2016-10-23T06:11:53.643Z,998.89
2016-10-23T06:12:33.696Z,998.82
2016-10-23T06:13:14.384Z,998.85
2016-10-23T06:13:55.035Z,998.88
2016-10-23T06:14:35.720Z,998.84
2016-10-23T06:15:16.398Z,998.87
2016-10-23T06:15:57.036Z,998.85
2016-10-23T06:16:37.649Z,998.89
2016-10-23T06:17:18.367Z,998.88
2016-10-23T06:17:59.029Z,998.93
2016-10-23T06:18:39.684Z,998.86
2016-10-23T06:19:20.397Z,998.88
2016-10-23T06:20:01.045Z,998.9
2016-10-23T06:20:41.751Z,998.89
2016-10-23T06:21:22.470Z,998.94
2016-10-23T06:22:03.153Z,998.92
2016-10-23T06:22:43.835Z,998.92
2016-10-23T06:23:24.472Z,998.95
2016-10-23T06:24:05.184Z,998.97
2016-10-23T06:24:45.874Z,998.94
2016-10-23T06:25:26.566Z,998.99
2016-10-23T06:26:07.225Z,999.02
2016-10-23T06:26:47.893Z,999.09
2016-10-23T06:27:28.584Z,999.05
2016-10-23T06:28:09.278Z,999.02
2016-10-23T06:28:49.933Z,999.07
2016-10-23T06:29:30.600Z,999.06
2016-10-23T06:30:11.234Z,999.04
2016-10-23T06:30:51.936Z,999.05
2016-10-23T06:31:32.650Z,999.07
2016-10-23T06:32:13.374Z,999.08
2016-10-23T06:32:54.066Z,999.1
2016-10-23T06:33:34.792Z,999.06
2016-10-23T06:34:15.500Z,999.05
2016-10-23T06:34:56.197Z,999.08
2016-10-23T06:35:36.884Z,999.08
2016-10-23T06:36:17.571Z,999.09
2016-10-23T06:36:58.234Z,999.09
2016-10-23T06:37:38.906Z,999.09
2016-10-23T06:38:19.613Z,999.04
2016-10-23T06:39:00.248Z,999.08
2016-10-23T06:39:40.940Z,999.05
2016-10-23T06:40:21.628Z,999.07
2016-10-23T06:41:02.333Z,999.12
2016-10-23T06:41:43.032Z,999.08
2016-10-23T06:42:23.741Z,999.12
2016-10-23T06:43:04.446Z,999.14
2016-10-23T06:43:45.122Z,999.14
2016-10-23T06:44:25.787Z,999.12
2016-10-23T06:45:06.470Z,999.14
2016-10-23T06:45:47.142Z,999.12
2016-10-23T06:46:27.859Z,999.13
2016-10-23T06:47:08.540Z,999.12
2016-10-23T06:47:49.261Z,999.11
2016-10-23T06:48:29.957Z,999.13
2016-10-23T06:49:10.648Z,999.14
2016-10-23T06:49:51.324Z,999.13
2016-10-23T06:50:31.979Z,999.15
2016-10-23T06:51:12.686Z,999.18
2016-10-23T06:51:53.326Z,999.16
2016-10-23T06:52:33.991Z,999.19
2016-10-23T06:53:14.702Z,999.17
2016-10-23T06:53:55.383Z,999.17
2016-10-23T06:54:36.057Z,999.2
2016-10-23T06:55:16.742Z,999.15
2016-10-23T06:55:57.402Z,999.12
2016-10-23T06:56:38.091Z,999.13
2016-10-23T06:57:18.825Z,999.11
2016-10-23T06:57:59.433Z,999.11
2016-10-23T06:58:40.132Z,999.07
2016-10-23T06:59:21.587Z,999.11
2016-10-23T07:00:02.326Z,999.15
2016-10-23T07:00:42.998Z,999.2
2016-10-23T07:01:23.749Z,999.21
2016-10-23T07:02:04.447Z,999.2
2016-10-23T07:02:45.125Z,999.25
2016-10-23T07:03:25.858Z,999.23
2016-10-23T07:04:06.525Z,999.25
2016-10-23T07:04:47.229Z,999.26
2016-10-23T07:05:27.883Z,999.26
2016-10-23T07:06:08.566Z,999.33
2016-10-23T07:06:49.242Z,999.35
2016-10-23T07:07:29.939Z,999.32
2016-10-23T07:08:10.626Z,999.29
2016-10-23T07:08:51.325Z,999.27
2016-10-23T07:09:32.038Z,999.3
2016-10-23T07:10:13.426Z,999.36
2016-10-23T07:10:54.107Z,999.39
2016-10-23T07:11:34.821Z,999.42
2016-10-23T07:12:15.524Z,999.38
2016-10-23T07:12:56.223Z,999.35
2016-10-23T07:13:36.911Z,999.31
2016-10-23T07:14:17.603Z,999.34
2016-10-23T07:14:58.278Z,999.33
2016-10-23T07:15:38.930Z,999.3
2016-10-23T07:16:19.612Z,999.33
2016-10-23T07:17:00.298Z,999.34
2016-10-23T07:17:40.967Z,999.29
2016-10-23T07:18:21.688Z,999.29
2016-10-23T07:19:02.360Z,999.33
2016-10-23T07:19:43.067Z,999.36
2016-10-23T07:20:23.761Z,999.4
2016-10-23T07:21:04.440Z,999.41
2016-10-23T07:21:45.104Z,999.42
2016-10-23T07:22:25.744Z,999.41
2016-10-23T07:23:06.429Z,999.38
2016-10-23T07:23:47.136Z,999.38
2016-10-23T07:24:27.845Z,999.39
2016-10-23T07:25:08.484Z,999.4
2016-10-23T07:25:49.195Z,999.39
2016-10-23T07:26:29.911Z,999.41
2016-10-23T07:27:10.587Z,999.44
2016-10-23T07:27:51.317Z,999.45
2016-10-23T07:28:31.979Z,999.54
2016-10-23T07:29:12.668Z,999.58
2016-10-23T07:29:53.345Z,999.58
2016-10-23T07:30:34.024Z,999.59
2016-10-23T07:31:14.699Z,999.57
2016-10-23T07:31:55.344Z,999.54
2016-10-23T07:32:36.060Z,999.5
2016-10-23T07:33:16.736Z,999.5
2016-10-23T07:33:57.442Z,999.52
2016-10-23T07:34:38.123Z,999.49
2016-10-23T07:35:18.814Z,999.5
2016-10-23T07:35:59.476Z,999.53
2016-10-23T07:36:40.190Z,999.54
2016-10-23T07:37:20.831Z,999.59
2016-10-23T07:38:01.515Z,999.63
2016-10-23T07:38:42.183Z,999.58
2016-10-23T07:39:22.886Z,999.61
2016-10-23T07:40:03.609Z,999.57
2016-10-23T07:40:44.257Z,999.56
2016-10-23T07:41:24.941Z,999.61
2016-10-23T07:42:05.661Z,999.62
2016-10-23T07:42:46.340Z,999.67
2016-10-23T07:43:27.027Z,999.68
2016-10-23T07:44:07.733Z,999.71
2016-10-23T07:44:48.426Z,999.75
2016-10-23T07:45:29.156Z,999.75
2016-10-23T07:46:09.930Z,999.78
2016-10-23T07:46:50.577Z,999.8
2016-10-23T07:47:31.288Z,999.83
2016-10-23T07:48:11.953Z,999.85
2016-10-23T07:48:52.677Z,999.86
2016-10-23T07:49:33.311Z,999.88
2016-10-23T07:50:13.976Z,999.92
2016-10-23T07:50:54.680Z,999.91
2016-10-23T07:51:35.413Z,999.87
2016-10-23T07:52:16.085Z,999.87
2016-10-23T07:52:56.800Z,999.87
2016-10-23T07:53:37.494Z,999.91
2016-10-23T07:54:18.168Z,999.9
2016-10-23T07:54:58.846Z,999.92
2016-10-23T07:55:39.517Z,999.91
2016-10-23T07:56:20.195Z,999.87
2016-10-23T07:57:00.858Z,999.85
2016-10-23T07:57:41.555Z,999.86
2016-10-23T07:58:22.311Z,999.81
2016-10-23T07:59:03.022Z,999.8
2016-10-23T07:59:43.698Z,999.78
2016-10-23T08:00:24.402Z,999.77
2016-10-23T08:01:05.118Z,999.8
2016-10-23T08:01:45.791Z,999.81
2016-10-23T08:02:27.437Z,999.84
2016-10-23T08:03:08.095Z,999.86
2016-10-23T08:03:48.787Z,999.85
2016-10-23T08:04:29.492Z,999.88
2016-10-23T08:05:10.191Z,999.8
2016-10-23T08:05:50.867Z,999.77
2016-10-23T08:06:31.529Z,999.77
2016-10-23T08:07:12.244Z,999.83
2016-10-23T08:07:52.977Z,999.84
2016-10-23T08:08:33.701Z,999.81
2016-10-23T08:09:14.369Z,999.83
2016-10-23T08:09:55.084Z,999.82
2016-10-23T08:10:35.824Z,999.83
2016-10-23T08:11:16.509Z,999.83
2016-10-23T08:11:57.204Z,999.86
2016-10-23T08:12:38.792Z,999.85
2016-10-23T08:13:19.456Z,999.87
2016-10-23T08:14:00.155Z,999.84
2016-10-23T08:14:40.835Z,999.83
2016-10-23T08:15:21.496Z,999.79
2016-10-23T08:16:02.148Z,999.83
2016-10-23T08:16:42.796Z,999.84
2016-10-23T08:17:23.481Z,999.8
2016-10-23T08:18:04.184Z,999.84
2016-10-23T08:18:44.890Z,999.83
2016-10-23T08:19:25.624Z,999.85
2016-10-23T08:20:06.275Z,999.84
2016-10-23T08:20:46.974Z,999.8
2016-10-23T08:21:27.634Z,999.8
2016-10-23T08:22:08.277Z,999.82
2016-10-23T08:22:49.011Z,999.82
2016-10-23T08:23:29.681Z,999.82
2016-10-23T08:24:10.327Z,999.84
2016-10-23T08:24:51.059Z,999.84
2016-10-23T08:25:31.773Z,999.86
2016-10-23T08:26:12.475Z,999.88
2016-10-23T08:26:53.155Z,999.88
2016-10-23T08:27:33.870Z,999.96
2016-10-23T08:28:14.521Z,999.92
2016-10-23T08:28:55.224Z,999.93
2016-10-23T08:29:35.898Z,999.94